sensor_id;sensor_type;location;lat;lon;timestamp;P1;durP1;ratioP1;P2;durP2;ratioP2
47429;SDS011;33181;49.246;7.372;2022-07-22T00:01:21;13.37;;;11.97;;
47429;SDS011;33181;49.246;7.372;2022-07-22T00:03:47;16.03;;;12.00;;
47429;SDS011;33181;49.246;7.372;2022-07-22T00:06:12;13.20;;;11.80;;
47429;SDS011;33181;49.246;7.372;2022-07-22T00:08:38;12.10;;;10.90;;
47429;SDS011;33181;49.246;7.372;2022-07-22T00:11:04;13.57;;;12.17;;
47429;SDS011;33181;49.246;7.372;2022-07-22T00:13:31;18.43;;;12.93;;
47429;SDS011;33181;49.246;7.372;2022-07-22T00:15:57;14.00;;;12.60;;
47429;SDS011;33181;49.246;7.372;2022-07-22T00:18:23;14.00;;;11.60;;
47429;SDS011;33181;49.246;7.372;2022-07-22T00:20:49;13.00;;;11.50;;
47429;SDS011;33181;49.246;7.372;2022-07-22T00:23:15;13.80;;;12.23;;
47429;SDS011;33181;49.246;7.372;2022-07-22T00:25:40;14.17;;;12.70;;
47429;SDS011;33181;49.246;7.372;2022-07-22T00:28:06;13.83;;;12.07;;
47429;SDS011;33181;49.246;7.372;2022-07-22T00:30:32;13.50;;;12.20;;
47429;SDS011;33181;49.246;7.372;2022-07-22T00:32:58;13.00;;;11.70;;
47429;SDS011;33181;49.246;7.372;2022-07-22T00:35:24;13.30;;;11.90;;
47429;SDS011;33181;49.246;7.372;2022-07-22T00:37:49;12.90;;;11.60;;
47429;SDS011;33181;49.246;7.372;2022-07-22T00:40:15;12.57;;;11.27;;
47429;SDS011;33181;49.246;7.372;2022-07-22T00:42:41;14.03;;;11.77;;
47429;SDS011;33181;49.246;7.372;2022-07-22T00:45:07;13.27;;;11.87;;
47429;SDS011;33181;49.246;7.372;2022-07-22T00:47:34;13.53;;;12.13;;
47429;SDS011;33181;49.246;7.372;2022-07-22T00:50:02;14.23;;;12.83;;
47429;SDS011;33181;49.246;7.372;2022-07-22T00:52:30;12.87;;;11.57;;
47429;SDS011;33181;49.246;7.372;2022-07-22T00:54:58;12.67;;;11.47;;
47429;SDS011;33181;49.246;7.372;2022-07-22T00:57:25;14.13;;;12.63;;
47429;SDS011;33181;49.246;7.372;2022-07-22T00:59:50;13.30;;;11.90;;
47429;SDS011;33181;49.246;7.372;2022-07-22T01:02:16;13.77;;;12.37;;
47429;SDS011;33181;49.246;7.372;2022-07-22T01:04:42;14.00;;;12.20;;
47429;SDS011;33181;49.246;7.372;2022-07-22T01:07:08;13.10;;;11.80;;
47429;SDS011;33181;49.246;7.372;2022-07-22T01:09:34;14.17;;;12.67;;
47429;SDS011;33181;49.246;7.372;2022-07-22T01:12:00;13.83;;;12.43;;
47429;SDS011;33181;49.246;7.372;2022-07-22T01:14:27;13.87;;;12.47;;
47429;SDS011;33181;49.246;7.372;2022-07-22T01:16:53;14.80;;;13.03;;
47429;SDS011;33181;49.246;7.372;2022-07-22T01:19:19;14.17;;;12.67;;
47429;SDS011;33181;49.246;7.372;2022-07-22T01:21:44;14.00;;;12.10;;
47429;SDS011;33181;49.246;7.372;2022-07-22T01:24:10;13.83;;;12.43;;
47429;SDS011;33181;49.246;7.372;2022-07-22T01:26:36;13.97;;;12.23;;
47429;SDS011;33181;49.246;7.372;2022-07-22T01:29:02;13.93;;;12.47;;
47429;SDS011;33181;49.246;7.372;2022-07-22T01:31:28;13.70;;;11.90;;
47429;SDS011;33181;49.246;7.372;2022-07-22T01:33:54;13.40;;;12.00;;
47429;SDS011;33181;49.246;7.372;2022-07-22T01:36:20;15.03;;;13.43;;
47429;SDS011;33181;49.246;7.372;2022-07-22T01:38:47;13.80;;;12.20;;
47429;SDS011;33181;49.246;7.372;2022-07-22T01:41:12;13.53;;;12.13;;
47429;SDS011;33181;49.246;7.372;2022-07-22T01:43:38;14.37;;;12.87;;
47429;SDS011;33181;49.246;7.372;2022-07-22T01:46:04;14.50;;;12.97;;
47429;SDS011;33181;49.246;7.372;2022-07-22T01:48:30;14.60;;;13.00;;
47429;SDS011;33181;49.246;7.372;2022-07-22T01:50:56;14.60;;;12.77;;
47429;SDS011;33181;49.246;7.372;2022-07-22T01:53:23;17.17;;;13.93;;
47429;SDS011;33181;49.246;7.372;2022-07-22T01:55:48;14.90;;;12.97;;
47429;SDS011;33181;49.246;7.372;2022-07-22T01:58:15;16.30;;;14.20;;
47429;SDS011;33181;49.246;7.372;2022-07-22T02:00:41;18.57;;;14.70;;
47429;SDS011;33181;49.246;7.372;2022-07-22T02:03:07;19.80;;;14.40;;
47429;SDS011;33181;49.246;7.372;2022-07-22T02:05:33;17.00;;;14.27;;
47429;SDS011;33181;49.246;7.372;2022-07-22T02:08:00;14.03;;;12.53;;
47429;SDS011;33181;49.246;7.372;2022-07-22T02:10:28;15.03;;;13.53;;
47429;SDS011;33181;49.246;7.372;2022-07-22T02:12:54;14.87;;;12.50;;
47429;SDS011;33181;49.246;7.372;2022-07-22T02:15:22;18.30;;;15.47;;
47429;SDS011;33181;49.246;7.372;2022-07-22T02:17:48;19.00;;;15.20;;
47429;SDS011;33181;49.246;7.372;2022-07-22T02:20:14;17.80;;;14.63;;
47429;SDS011;33181;49.246;7.372;2022-07-22T02:22:40;17.20;;;15.33;;
47429;SDS011;33181;49.246;7.372;2022-07-22T02:25:06;19.03;;;15.20;;
47429;SDS011;33181;49.246;7.372;2022-07-22T02:27:32;19.40;;;15.60;;
47429;SDS011;33181;49.246;7.372;2022-07-22T02:29:58;15.33;;;13.70;;
47429;SDS011;33181;49.246;7.372;2022-07-22T02:32:23;17.17;;;14.77;;
47429;SDS011;33181;49.246;7.372;2022-07-22T02:34:49;17.47;;;15.30;;
47429;SDS011;33181;49.246;7.372;2022-07-22T02:37:15;19.90;;;14.57;;
47429;SDS011;33181;49.246;7.372;2022-07-22T02:39:41;17.37;;;15.47;;
47429;SDS011;33181;49.246;7.372;2022-07-22T02:42:06;17.83;;;15.07;;
47429;SDS011;33181;49.246;7.372;2022-07-22T02:44:32;16.50;;;14.73;;
47429;SDS011;33181;49.246;7.372;2022-07-22T02:46:58;16.70;;;14.93;;
47429;SDS011;33181;49.246;7.372;2022-07-22T02:49:24;18.40;;;14.87;;
47429;SDS011;33181;49.246;7.372;2022-07-22T02:51:50;17.20;;;14.17;;
47429;SDS011;33181;49.246;7.372;2022-07-22T02:54:16;16.10;;;14.40;;
47429;SDS011;33181;49.246;7.372;2022-07-22T02:56:41;16.00;;;13.57;;
47429;SDS011;33181;49.246;7.372;2022-07-22T02:59:08;14.43;;;12.70;;
47429;SDS011;33181;49.246;7.372;2022-07-22T03:01:34;14.20;;;12.70;;
47429;SDS011;33181;49.246;7.372;2022-07-22T03:03:59;15.50;;;13.40;;
47429;SDS011;33181;49.246;7.372;2022-07-22T03:06:25;16.93;;;14.10;;
47429;SDS011;33181;49.246;7.372;2022-07-22T03:08:51;13.77;;;12.30;;
47429;SDS011;33181;49.246;7.372;2022-07-22T03:11:16;16.17;;;13.83;;
47429;SDS011;33181;49.246;7.372;2022-07-22T03:13:42;15.67;;;13.80;;
47429;SDS011;33181;49.246;7.372;2022-07-22T03:16:08;17.30;;;14.90;;
47429;SDS011;33181;49.246;7.372;2022-07-22T03:18:34;16.10;;;14.37;;
47429;SDS011;33181;49.246;7.372;2022-07-22T03:21:00;17.17;;;14.93;;
47429;SDS011;33181;49.246;7.372;2022-07-22T03:23:26;15.70;;;13.57;;
47429;SDS011;33181;49.246;7.372;2022-07-22T03:25:51;18.67;;;14.60;;
47429;SDS011;33181;49.246;7.372;2022-07-22T03:28:17;17.23;;;14.13;;
47429;SDS011;33181;49.246;7.372;2022-07-22T03:30:44;16.83;;;14.97;;
47429;SDS011;33181;49.246;7.372;2022-07-22T03:33:10;19.70;;;15.90;;
47429;SDS011;33181;49.246;7.372;2022-07-22T03:35:36;18.17;;;15.30;;
47429;SDS011;33181;49.246;7.372;2022-07-22T03:38:01;17.40;;;15.60;;
47429;SDS011;33181;49.246;7.372;2022-07-22T03:40:28;17.40;;;14.43;;
47429;SDS011;33181;49.246;7.372;2022-07-22T03:42:54;15.87;;;14.20;;
47429;SDS011;33181;49.246;7.372;2022-07-22T03:45:19;15.37;;;13.37;;
47429;SDS011;33181;49.246;7.372;2022-07-22T03:47:45;16.20;;;13.03;;
47429;SDS011;33181;49.246;7.372;2022-07-22T03:50:11;19.53;;;14.80;;
47429;SDS011;33181;49.246;7.372;2022-07-22T03:52:38;16.20;;;14.10;;
47429;SDS011;33181;49.246;7.372;2022-07-22T03:55:04;15.90;;;14.30;;
47429;SDS011;33181;49.246;7.372;2022-07-22T03:57:31;16.67;;;14.67;;
47429;SDS011;33181;49.246;7.372;2022-07-22T03:59:57;14.87;;;13.33;;
47429;SDS011;33181;49.246;7.372;2022-07-22T04:02:23;17.47;;;14.37;;
47429;SDS011;33181;49.246;7.372;2022-07-22T04:04:48;18.13;;;15.30;;
47429;SDS011;33181;49.246;7.372;2022-07-22T04:07:14;16.57;;;13.83;;
47429;SDS011;33181;49.246;7.372;2022-07-22T04:09:40;15.80;;;13.73;;
47429;SDS011;33181;49.246;7.372;2022-07-22T04:12:06;16.37;;;14.10;;
47429;SDS011;33181;49.246;7.372;2022-07-22T04:14:32;15.50;;;13.90;;
47429;SDS011;33181;49.246;7.372;2022-07-22T04:16:57;15.73;;;13.23;;
47429;SDS011;33181;49.246;7.372;2022-07-22T04:19:23;14.67;;;13.17;;
47429;SDS011;33181;49.246;7.372;2022-07-22T04:21:49;17.10;;;14.23;;
47429;SDS011;33181;49.246;7.372;2022-07-22T04:24:15;18.87;;;13.90;;
47429;SDS011;33181;49.246;7.372;2022-07-22T04:26:40;16.90;;;15.00;;
47429;SDS011;33181;49.246;7.372;2022-07-22T04:29:06;18.03;;;14.30;;
47429;SDS011;33181;49.246;7.372;2022-07-22T04:31:32;21.23;;;14.20;;
47429;SDS011;33181;49.246;7.372;2022-07-22T04:33:58;17.53;;;14.50;;
47429;SDS011;33181;49.246;7.372;2022-07-22T04:36:24;15.47;;;13.80;;
47429;SDS011;33181;49.246;7.372;2022-07-22T04:38:50;14.47;;;12.80;;
47429;SDS011;33181;49.246;7.372;2022-07-22T04:41:16;13.90;;;12.30;;
47429;SDS011;33181;49.246;7.372;2022-07-22T04:43:41;16.00;;;13.90;;
47429;SDS011;33181;49.246;7.372;2022-07-22T04:46:07;15.33;;;13.73;;
47429;SDS011;33181;49.246;7.372;2022-07-22T04:48:33;15.10;;;13.50;;
47429;SDS011;33181;49.246;7.372;2022-07-22T04:51:02;14.63;;;12.53;;
47429;SDS011;33181;49.246;7.372;2022-07-22T04:53:28;14.23;;;11.90;;
47429;SDS011;33181;49.246;7.372;2022-07-22T04:55:54;14.43;;;12.73;;
47429;SDS011;33181;49.246;7.372;2022-07-22T04:58:20;16.13;;;13.47;;
47429;SDS011;33181;49.246;7.372;2022-07-22T05:00:46;13.00;;;11.70;;
47429;SDS011;33181;49.246;7.372;2022-07-22T05:03:12;13.63;;;11.97;;
47429;SDS011;33181;49.246;7.372;2022-07-22T05:05:38;15.20;;;12.33;;
47429;SDS011;33181;49.246;7.372;2022-07-22T05:08:04;13.10;;;11.70;;
47429;SDS011;33181;49.246;7.372;2022-07-22T05:10:30;14.60;;;12.83;;
47429;SDS011;33181;49.246;7.372;2022-07-22T05:12:57;13.40;;;12.00;;
47429;SDS011;33181;49.246;7.372;2022-07-22T05:15:23;15.20;;;13.20;;
47429;SDS011;33181;49.246;7.372;2022-07-22T05:17:49;16.47;;;12.50;;
47429;SDS011;33181;49.246;7.372;2022-07-22T05:20:15;14.40;;;12.23;;
47429;SDS011;33181;49.246;7.372;2022-07-22T05:22:41;14.00;;;12.37;;
47429;SDS011;33181;49.246;7.372;2022-07-22T05:25:07;14.00;;;12.50;;
47429;SDS011;33181;49.246;7.372;2022-07-22T05:27:33;14.03;;;12.30;;
47429;SDS011;33181;49.246;7.372;2022-07-22T05:29:59;14.07;;;12.13;;
47429;SDS011;33181;49.246;7.372;2022-07-22T05:32:25;18.03;;;12.20;;
47429;SDS011;33181;49.246;7.372;2022-07-22T05:34:51;15.50;;;12.83;;
47429;SDS011;33181;49.246;7.372;2022-07-22T05:37:17;13.47;;;12.07;;
47429;SDS011;33181;49.246;7.372;2022-07-22T05:39:43;17.70;;;12.90;;
47429;SDS011;33181;49.246;7.372;2022-07-22T05:42:09;14.93;;;11.77;;
47429;SDS011;33181;49.246;7.372;2022-07-22T05:44:35;16.43;;;12.17;;
47429;SDS011;33181;49.246;7.372;2022-07-22T05:47:01;17.07;;;11.93;;
47429;SDS011;33181;49.246;7.372;2022-07-22T05:49:27;14.00;;;11.97;;
47429;SDS011;33181;49.246;7.372;2022-07-22T05:51:53;15.70;;;12.63;;
47429;SDS011;33181;49.246;7.372;2022-07-22T05:54:19;14.43;;;12.20;;
47429;SDS011;33181;49.246;7.372;2022-07-22T05:56:45;16.50;;;11.60;;
47429;SDS011;33181;49.246;7.372;2022-07-22T05:59:11;17.77;;;11.70;;
47429;SDS011;33181;49.246;7.372;2022-07-22T06:01:36;16.77;;;11.33;;
47429;SDS011;33181;49.246;7.372;2022-07-22T06:04:02;13.80;;;11.60;;
47429;SDS011;33181;49.246;7.372;2022-07-22T06:06:28;12.93;;;11.17;;
47429;SDS011;33181;49.246;7.372;2022-07-22T06:08:54;16.50;;;12.60;;
47429;SDS011;33181;49.246;7.372;2022-07-22T06:11:19;19.00;;;12.50;;
47429;SDS011;33181;49.246;7.372;2022-07-22T06:13:45;13.47;;;10.97;;
47429;SDS011;33181;49.246;7.372;2022-07-22T06:16:11;15.93;;;11.83;;
47429;SDS011;33181;49.246;7.372;2022-07-22T06:18:37;16.20;;;10.73;;
47429;SDS011;33181;49.246;7.372;2022-07-22T06:21:03;18.80;;;11.20;;
47429;SDS011;33181;49.246;7.372;2022-07-22T06:23:30;17.53;;;10.83;;
47429;SDS011;33181;49.246;7.372;2022-07-22T06:25:56;12.67;;;9.83;;
47429;SDS011;33181;49.246;7.372;2022-07-22T06:28:21;14.90;;;11.40;;
47429;SDS011;33181;49.246;7.372;2022-07-22T06:30:47;15.13;;;10.80;;
47429;SDS011;33181;49.246;7.372;2022-07-22T06:33:13;16.83;;;10.60;;
47429;SDS011;33181;49.246;7.372;2022-07-22T06:35:39;16.43;;;10.83;;
47429;SDS011;33181;49.246;7.372;2022-07-22T06:38:05;18.33;;;10.50;;
47429;SDS011;33181;49.246;7.372;2022-07-22T06:40:32;19.43;;;10.83;;
47429;SDS011;33181;49.246;7.372;2022-07-22T06:42:59;12.90;;;9.93;;
47429;SDS011;33181;49.246;7.372;2022-07-22T06:45:24;15.13;;;10.90;;
47429;SDS011;33181;49.246;7.372;2022-07-22T06:47:51;13.63;;;10.70;;
47429;SDS011;33181;49.246;7.372;2022-07-22T06:50:17;14.13;;;10.60;;
47429;SDS011;33181;49.246;7.372;2022-07-22T06:52:43;13.77;;;10.50;;
47429;SDS011;33181;49.246;7.372;2022-07-22T06:55:09;15.50;;;11.03;;
47429;SDS011;33181;49.246;7.372;2022-07-22T06:57:35;15.60;;;10.40;;
47429;SDS011;33181;49.246;7.372;2022-07-22T07:00:02;13.27;;;10.23;;
47429;SDS011;33181;49.246;7.372;2022-07-22T07:02:32;16.53;;;10.20;;
47429;SDS011;33181;49.246;7.372;2022-07-22T07:04:58;13.17;;;9.83;;
47429;SDS011;33181;49.246;7.372;2022-07-22T07:07:24;11.80;;;9.80;;
47429;SDS011;33181;49.246;7.372;2022-07-22T07:09:49;14.47;;;10.47;;
47429;SDS011;33181;49.246;7.372;2022-07-22T07:12:15;18.27;;;11.10;;
47429;SDS011;33181;49.246;7.372;2022-07-22T07:14:41;14.07;;;10.70;;
47429;SDS011;33181;49.246;7.372;2022-07-22T07:17:07;11.70;;;10.37;;
47429;SDS011;33181;49.246;7.372;2022-07-22T07:19:32;12.23;;;10.40;;
47429;SDS011;33181;49.246;7.372;2022-07-22T07:21:58;12.77;;;10.27;;
47429;SDS011;33181;49.246;7.372;2022-07-22T07:24:24;12.73;;;9.80;;
47429;SDS011;33181;49.246;7.372;2022-07-22T07:26:49;13.23;;;9.93;;
47429;SDS011;33181;49.246;7.372;2022-07-22T07:29:15;13.73;;;9.33;;
47429;SDS011;33181;49.246;7.372;2022-07-22T07:31:41;14.40;;;9.73;;
47429;SDS011;33181;49.246;7.372;2022-07-22T07:34:07;12.97;;;10.57;;
47429;SDS011;33181;49.246;7.372;2022-07-22T07:36:33;11.20;;;9.93;;
47429;SDS011;33181;49.246;7.372;2022-07-22T07:38:58;12.47;;;9.60;;
47429;SDS011;33181;49.246;7.372;2022-07-22T07:41:24;13.77;;;9.90;;
47429;SDS011;33181;49.246;7.372;2022-07-22T07:43:50;12.43;;;9.70;;
47429;SDS011;33181;49.246;7.372;2022-07-22T07:46:16;13.23;;;9.50;;
47429;SDS011;33181;49.246;7.372;2022-07-22T07:48:41;14.80;;;10.27;;
47429;SDS011;33181;49.246;7.372;2022-07-22T07:51:07;11.20;;;9.33;;
47429;SDS011;33181;49.246;7.372;2022-07-22T07:53:33;11.60;;;9.73;;
47429;SDS011;33181;49.246;7.372;2022-07-22T07:55:59;11.80;;;9.93;;
47429;SDS011;33181;49.246;7.372;2022-07-22T07:58:25;13.57;;;9.60;;
47429;SDS011;33181;49.246;7.372;2022-07-22T08:00:51;14.17;;;10.37;;
47429;SDS011;33181;49.246;7.372;2022-07-22T08:03:16;11.87;;;9.70;;
47429;SDS011;33181;49.246;7.372;2022-07-22T08:05:42;10.73;;;9.50;;
47429;SDS011;33181;49.246;7.372;2022-07-22T08:08:08;10.97;;;9.07;;
47429;SDS011;33181;49.246;7.372;2022-07-22T08:10:34;13.10;;;10.30;;
47429;SDS011;33181;49.246;7.372;2022-07-22T08:13:00;12.10;;;10.10;;
47429;SDS011;33181;49.246;7.372;2022-07-22T08:15:26;14.60;;;9.97;;
47429;SDS011;33181;49.246;7.372;2022-07-22T08:17:52;16.03;;;10.00;;
47429;SDS011;33181;49.246;7.372;2022-07-22T08:20:19;12.23;;;9.60;;
47429;SDS011;33181;49.246;7.372;2022-07-22T08:22:46;10.83;;;9.30;;
47429;SDS011;33181;49.246;7.372;2022-07-22T08:25:12;10.77;;;9.67;;
47429;SDS011;33181;49.246;7.372;2022-07-22T08:27:38;13.80;;;10.27;;
47429;SDS011;33181;49.246;7.372;2022-07-22T08:30:04;10.57;;;9.40;;
47429;SDS011;33181;49.246;7.372;2022-07-22T08:32:32;11.57;;;9.80;;
47429;SDS011;33181;49.246;7.372;2022-07-22T08:34:59;13.20;;;9.60;;
47429;SDS011;33181;49.246;7.372;2022-07-22T08:37:26;12.03;;;9.53;;
47429;SDS011;33181;49.246;7.372;2022-07-22T08:39:52;14.53;;;10.40;;
47429;SDS011;33181;49.246;7.372;2022-07-22T08:42:19;12.53;;;9.90;;
47429;SDS011;33181;49.246;7.372;2022-07-22T08:44:49;14.50;;;9.83;;
47429;SDS011;33181;49.246;7.372;2022-07-22T08:47:15;13.37;;;9.57;;
47429;SDS011;33181;49.246;7.372;2022-07-22T08:49:47;9.90;;;8.57;;
47429;SDS011;33181;49.246;7.372;2022-07-22T08:52:13;13.07;;;9.90;;
47429;SDS011;33181;49.246;7.372;2022-07-22T08:54:38;12.00;;;9.13;;
47429;SDS011;33181;49.246;7.372;2022-07-22T08:57:04;11.03;;;9.37;;
47429;SDS011;33181;49.246;7.372;2022-07-22T08:59:30;11.60;;;10.23;;
47429;SDS011;33181;49.246;7.372;2022-07-22T09:02:03;11.60;;;9.60;;
47429;SDS011;33181;49.246;7.372;2022-07-22T09:07:38;10.13;;;8.97;;
47429;SDS011;33181;49.246;7.372;2022-07-22T09:10:07;9.90;;;8.90;;
47429;SDS011;33181;49.246;7.372;2022-07-22T09:12:51;10.80;;;8.93;;
47429;SDS011;33181;49.246;7.372;2022-07-22T09:15:26;10.40;;;8.60;;
47429;SDS011;33181;49.246;7.372;2022-07-22T09:17:56;9.70;;;8.70;;
47429;SDS011;33181;49.246;7.372;2022-07-22T09:20:23;10.40;;;9.30;;
47429;SDS011;33181;49.246;7.372;2022-07-22T09:22:50;11.43;;;10.20;;
47429;SDS011;33181;49.246;7.372;2022-07-22T09:30:34;11.47;;;9.40;;
47429;SDS011;33181;49.246;7.372;2022-07-22T09:33:14;10.17;;;9.17;;
47429;SDS011;33181;49.246;7.372;2022-07-22T09:35:41;9.97;;;9.00;;
47429;SDS011;33181;49.246;7.372;2022-07-22T09:38:09;11.33;;;10.13;;
47429;SDS011;33181;49.246;7.372;2022-07-22T09:40:37;11.57;;;9.73;;
47429;SDS011;33181;49.246;7.372;2022-07-22T09:43:06;10.80;;;8.77;;
47429;SDS011;33181;49.246;7.372;2022-07-22T09:45:45;12.43;;;9.60;;
47429;SDS011;33181;49.246;7.372;2022-07-22T09:48:17;14.20;;;9.83;;
47429;SDS011;33181;49.246;7.372;2022-07-22T09:50:44;10.70;;;9.50;;
47429;SDS011;33181;49.246;7.372;2022-07-22T09:53:12;10.53;;;9.40;;
47429;SDS011;33181;49.246;7.372;2022-07-22T09:55:38;10.90;;;9.80;;
47429;SDS011;33181;49.246;7.372;2022-07-22T09:58:05;11.40;;;9.77;;
47429;SDS011;33181;49.246;7.372;2022-07-22T10:00:32;10.47;;;9.23;;
47429;SDS011;33181;49.246;7.372;2022-07-22T10:03:01;10.43;;;9.30;;
47429;SDS011;33181;49.246;7.372;2022-07-22T10:05:36;11.73;;;9.70;;
47429;SDS011;33181;49.246;7.372;2022-07-22T10:08:06;11.90;;;10.70;;
47429;SDS011;33181;49.246;7.372;2022-07-22T10:10:33;10.20;;;9.20;;
47429;SDS011;33181;49.246;7.372;2022-07-22T10:13:02;11.40;;;10.30;;
47429;SDS011;33181;49.246;7.372;2022-07-22T10:15:30;10.40;;;9.50;;
47429;SDS011;33181;49.246;7.372;2022-07-22T10:18:01;10.97;;;9.87;;
47429;SDS011;33181;49.246;7.372;2022-07-22T10:20:39;12.63;;;9.63;;
47429;SDS011;33181;49.246;7.372;2022-07-22T10:23:06;10.60;;;9.50;;
47429;SDS011;33181;49.246;7.372;2022-07-22T10:25:54;11.13;;;9.13;;
47429;SDS011;33181;49.246;7.372;2022-07-22T10:33:53;10.10;;;9.20;;
47429;SDS011;33181;49.246;7.372;2022-07-22T10:36:34;11.63;;;9.90;;
47429;SDS011;33181;49.246;7.372;2022-07-22T10:41:33;11.43;;;9.13;;
47429;SDS011;33181;49.246;7.372;2022-07-22T10:44:01;11.83;;;9.90;;
47429;SDS011;33181;49.246;7.372;2022-07-22T10:49:20;11.40;;;10.20;;
47429;SDS011;33181;49.246;7.372;2022-07-22T10:55:15;12.03;;;8.90;;
47429;SDS011;33181;49.246;7.372;2022-07-22T10:57:46;10.40;;;9.10;;
47429;SDS011;33181;49.246;7.372;2022-07-22T11:00:16;10.70;;;9.57;;
47429;SDS011;33181;49.246;7.372;2022-07-22T11:02:42;12.13;;;9.83;;
47429;SDS011;33181;49.246;7.372;2022-07-22T11:05:08;10.87;;;9.37;;
47429;SDS011;33181;49.246;7.372;2022-07-22T11:07:40;12.30;;;9.90;;
47429;SDS011;33181;49.246;7.372;2022-07-22T11:10:12;9.90;;;9.00;;
47429;SDS011;33181;49.246;7.372;2022-07-22T11:12:39;9.90;;;8.90;;
47429;SDS011;33181;49.246;7.372;2022-07-22T11:15:07;10.27;;;9.27;;
47429;SDS011;33181;49.246;7.372;2022-07-22T11:17:34;11.67;;;10.47;;
47429;SDS011;33181;49.246;7.372;2022-07-22T11:20:02;10.70;;;9.60;;
47429;SDS011;33181;49.246;7.372;2022-07-22T11:22:30;10.83;;;9.77;;
47429;SDS011;33181;49.246;7.372;2022-07-22T11:24:59;11.93;;;9.80;;
47429;SDS011;33181;49.246;7.372;2022-07-22T11:27:29;12.03;;;10.00;;
47429;SDS011;33181;49.246;7.372;2022-07-22T11:29:55;11.60;;;10.23;;
47429;SDS011;33181;49.246;7.372;2022-07-22T11:32:23;11.10;;;10.00;;
47429;SDS011;33181;49.246;7.372;2022-07-22T11:34:50;9.37;;;8.47;;
47429;SDS011;33181;49.246;7.372;2022-07-22T11:37:20;11.07;;;9.70;;
47429;SDS011;33181;49.246;7.372;2022-07-22T11:39:49;10.20;;;9.17;;
47429;SDS011;33181;49.246;7.372;2022-07-22T11:42:16;10.83;;;9.73;;
47429;SDS011;33181;49.246;7.372;2022-07-22T11:44:42;11.87;;;9.77;;
47429;SDS011;33181;49.246;7.372;2022-07-22T11:47:09;9.90;;;8.80;;
47429;SDS011;33181;49.246;7.372;2022-07-22T11:49:37;10.10;;;9.10;;
47429;SDS011;33181;49.246;7.372;2022-07-22T11:52:08;11.53;;;9.53;;
47429;SDS011;33181;49.246;7.372;2022-07-22T11:54:37;10.83;;;9.33;;
47429;SDS011;33181;49.246;7.372;2022-07-22T11:57:04;10.23;;;8.93;;
47429;SDS011;33181;49.246;7.372;2022-07-22T11:59:32;10.17;;;9.17;;
47429;SDS011;33181;49.246;7.372;2022-07-22T12:02:00;9.93;;;9.00;;
47429;SDS011;33181;49.246;7.372;2022-07-22T12:04:28;11.20;;;9.37;;
47429;SDS011;33181;49.246;7.372;2022-07-22T12:06:57;11.80;;;9.70;;
47429;SDS011;33181;49.246;7.372;2022-07-22T12:09:26;13.23;;;8.87;;
47429;SDS011;33181;49.246;7.372;2022-07-22T12:12:03;10.03;;;9.03;;
47429;SDS011;33181;49.246;7.372;2022-07-22T12:14:30;9.20;;;8.40;;
47429;SDS011;33181;49.246;7.372;2022-07-22T12:19:30;10.73;;;9.40;;
47429;SDS011;33181;49.246;7.372;2022-07-22T12:22:08;12.70;;;9.30;;
47429;SDS011;33181;49.246;7.372;2022-07-22T12:24:40;13.00;;;9.77;;
47429;SDS011;33181;49.246;7.372;2022-07-22T12:27:12;10.60;;;9.60;;
47429;SDS011;33181;49.246;7.372;2022-07-22T12:32:09;14.60;;;9.80;;
47429;SDS011;33181;49.246;7.372;2022-07-22T12:34:44;9.53;;;8.63;;
47429;SDS011;33181;49.246;7.372;2022-07-22T12:37:23;11.37;;;8.93;;
47429;SDS011;33181;49.246;7.372;2022-07-22T12:40:17;9.80;;;8.63;;
47429;SDS011;33181;49.246;7.372;2022-07-22T12:42:46;9.97;;;8.60;;
47429;SDS011;33181;49.246;7.372;2022-07-22T12:45:25;9.07;;;8.17;;
47429;SDS011;33181;49.246;7.372;2022-07-22T12:47:57;9.50;;;8.40;;
47429;SDS011;33181;49.246;7.372;2022-07-22T12:53:21;11.33;;;8.70;;
47429;SDS011;33181;49.246;7.372;2022-07-22T12:55:49;9.43;;;8.53;;
47429;SDS011;33181;49.246;7.372;2022-07-22T12:58:17;10.63;;;9.20;;
47429;SDS011;33181;49.246;7.372;2022-07-22T13:00:45;9.83;;;8.87;;
47429;SDS011;33181;49.246;7.372;2022-07-22T13:03:14;11.87;;;9.03;;
47429;SDS011;33181;49.246;7.372;2022-07-22T13:05:43;9.40;;;8.40;;
47429;SDS011;33181;49.246;7.372;2022-07-22T13:08:15;9.83;;;8.93;;
47429;SDS011;33181;49.246;7.372;2022-07-22T13:10:41;9.73;;;8.63;;
47429;SDS011;33181;49.246;7.372;2022-07-22T13:13:07;9.30;;;8.30;;
47429;SDS011;33181;49.246;7.372;2022-07-22T13:15:33;9.60;;;8.20;;
47429;SDS011;33181;49.246;7.372;2022-07-22T13:18:00;10.60;;;7.50;;
47429;SDS011;33181;49.246;7.372;2022-07-22T13:20:26;10.37;;;8.87;;
47429;SDS011;33181;49.246;7.372;2022-07-22T13:22:52;9.20;;;8.20;;
47429;SDS011;33181;49.246;7.372;2022-07-22T13:25:17;9.67;;;8.23;;
47429;SDS011;33181;49.246;7.372;2022-07-22T13:27:43;8.60;;;7.80;;
47429;SDS011;33181;49.246;7.372;2022-07-22T13:30:09;8.27;;;7.57;;
47429;SDS011;33181;49.246;7.372;2022-07-22T13:32:36;8.20;;;7.40;;
47429;SDS011;33181;49.246;7.372;2022-07-22T13:35:01;8.63;;;7.83;;
47429;SDS011;33181;49.246;7.372;2022-07-22T13:37:28;8.20;;;7.40;;
47429;SDS011;33181;49.246;7.372;2022-07-22T13:39:54;8.60;;;7.77;;
47429;SDS011;33181;49.246;7.372;2022-07-22T13:42:20;8.87;;;7.97;;
47429;SDS011;33181;49.246;7.372;2022-07-22T13:44:46;8.10;;;7.30;;
47429;SDS011;33181;49.246;7.372;2022-07-22T13:47:13;12.40;;;8.40;;
47429;SDS011;33181;49.246;7.372;2022-07-22T13:49:40;8.87;;;8.07;;
47429;SDS011;33181;49.246;7.372;2022-07-22T13:52:06;8.87;;;8.03;;
47429;SDS011;33181;49.246;7.372;2022-07-22T13:54:32;11.03;;;7.70;;
47429;SDS011;33181;49.246;7.372;2022-07-22T13:56:59;10.60;;;8.13;;
47429;SDS011;33181;49.246;7.372;2022-07-22T13:59:26;9.83;;;7.97;;
47429;SDS011;33181;49.246;7.372;2022-07-22T14:01:54;9.70;;;8.33;;
47429;SDS011;33181;49.246;7.372;2022-07-22T14:04:21;8.60;;;7.80;;
47429;SDS011;33181;49.246;7.372;2022-07-22T14:06:47;11.77;;;7.83;;
47429;SDS011;33181;49.246;7.372;2022-07-22T14:09:13;8.63;;;7.83;;
47429;SDS011;33181;49.246;7.372;2022-07-22T14:11:39;9.00;;;8.07;;
47429;SDS011;33181;49.246;7.372;2022-07-22T14:14:05;8.80;;;7.90;;
47429;SDS011;33181;49.246;7.372;2022-07-22T14:16:31;9.47;;;8.47;;
47429;SDS011;33181;49.246;7.372;2022-07-22T14:19:01;9.37;;;8.47;;
47429;SDS011;33181;49.246;7.372;2022-07-22T14:21:37;9.10;;;8.23;;
47429;SDS011;33181;49.246;7.372;2022-07-22T14:24:05;12.33;;;8.67;;
47429;SDS011;33181;49.246;7.372;2022-07-22T14:26:33;9.00;;;8.20;;
47429;SDS011;33181;49.246;7.372;2022-07-22T14:28:59;10.20;;;8.47;;
47429;SDS011;33181;49.246;7.372;2022-07-22T14:31:25;9.03;;;8.13;;
47429;SDS011;33181;49.246;7.372;2022-07-22T14:33:51;9.13;;;8.33;;
47429;SDS011;33181;49.246;7.372;2022-07-22T14:36:18;9.30;;;8.40;;
47429;SDS011;33181;49.246;7.372;2022-07-22T14:38:44;8.90;;;8.10;;
47429;SDS011;33181;49.246;7.372;2022-07-22T14:41:10;9.20;;;8.23;;
47429;SDS011;33181;49.246;7.372;2022-07-22T14:43:36;9.90;;;8.30;;
47429;SDS011;33181;49.246;7.372;2022-07-22T14:46:02;8.70;;;7.90;;
47429;SDS011;33181;49.246;7.372;2022-07-22T14:48:36;9.20;;;8.40;;
47429;SDS011;33181;49.246;7.372;2022-07-22T14:51:03;9.13;;;8.33;;
47429;SDS011;33181;49.246;7.372;2022-07-22T14:53:29;8.63;;;7.73;;
47429;SDS011;33181;49.246;7.372;2022-07-22T14:55:55;9.07;;;7.97;;
47429;SDS011;33181;49.246;7.372;2022-07-22T14:58:21;8.80;;;7.90;;